AirNav   Air Wisconsin Up To $57,000 Bonus
 
 433 users online  

9OA4 Gilmer Airport
Lewisburg, Ohio, USA

GOING TO LEWISBURG?


FAA INFORMATION EFFECTIVE 07 OCTOBER 2021

Location

FAA Identifier: 9OA4
Lat/Long: 39-49-49.1880N 084-30-34.8210W
39-49.819800N 084-30.580350W
39.8303300,-84.5096725
(estimated)
Elevation: 1045 ft. / 319 m (estimated)
Variation: 04W (1985)
From city: 2 miles SE of LEWISBURG, OH
Time zone: UTC -4 (UTC -5 during Standard Time)
Zip code: 45338

Airport Operations

Airport use: Private use. Permission required prior to landing
Activation date: 11/1960
Control tower: no
ARTCC: INDIANAPOLIS CENTER
FSS: DAYTON FLIGHT SERVICE STATION
Attendance: IREG
Wind indicator: yes
Segmented circle: no

Airport Communications

WX ASOS at DAY (14 nm E): PHONE 937-415-6819
WX AWOS-3 at RID (16 nm W): 121.225 (765-983-1903)
WX AWOS-3 at MWO (19 nm S): 120.025 (513-422-3505)
WX ASOS at MGY (20 nm SE): 118.375 (937-885-2171)

Nearby radio navigation aids

VOR radial/distance  VOR name  Freq  Var
DQNr206/12.3DAYTON VOR/DME114.5001W
RODr223/34.8ROSEWOOD VORTAC117.5005W

 
NDB name  Hdg/Dist  Freq  Var  ID
BRUNY269/8.131506WAT .- -
HOOK FIELD356/20.123904WHKF .... -.- ..-.
NEW CASTLE101/37.438506WUWL ..- .-- .-..

Airport Services

Parking: hangars
Airframe service: NONE
Powerplant service: NONE

Runway Information

Runway 18/36

Dimensions: 2200 x 67 ft. / 671 x 20 m
Surface: turf
RUNWAY 18  RUNWAY 36
Traffic pattern: leftleft
Obstructions: road, 5 ft. from runwaynone

Airport Ownership and Management from official FAA records

Ownership: Privately-owned
Owner: STEVE A. GILMER
RR 1
LEWISBURG, OH 45338
Phone 513-962-2810

Airport Operational Statistics

Aircraft based on the field: 3
Single engine airplanes: 3
    
Aircraft operations: avg 30/month
100% local general aviation

Additional Remarks

FOR CD CTC COLUMBUS APCH AT 614-338-8537

Instrument Procedures

There are no published instrument procedures at 9OA4.

Some nearby airports with instrument procedures:

3I7 - Dayton-Phillipsburg Airport (7 nm NE)
KDAY - James M Cox Dayton International Airport (14 nm E)
KRID - Richmond Municipal Airport (16 nm W)
KMWO - Middletown Regional Airport/Hook Field (19 nm S)
KMGY - Dayton-Wright Brothers Airport (20 nm SE)
 
Loc | Ops | Rwys | IFR | FBO | Links
Com | Nav | Svcs | Stats | Notes
Area around 9OA4 (Gilmer Airport)
 
Road maps at: MapQuest Bing Google
 
Aerial photo
No photo
 
Sectional chart

 
Airport distance calculator
Flying to Gilmer Airport? Find the distance to fly.

From to 9OA4

Sunrise and sunset
Times for 28-Oct-2021
 Local
(UTC-4)
 Zulu
(UTC)
Morning civil twilight07:3611:36
Sunrise08:0312:03
Sunset18:4022:40
Evening civil twilight19:0823:08

Current date and time
Zulu (UTC)  28-Oct-2021 06:22:35
Local (UTC-4)  28-Oct-2021 02:22:35
 
METAR
KDAY 
14nm E 
280556Z 12013KT 10SM OVC009 09/06 A2985 RMK AO2 SLP110 T00940061 10100 20089 58011
KRID 
16nm W 
280555Z AUTO 11009KT 10SM OVC008 07/07 A2983 RMK AO2
KMWO 
19nm S 
280555Z AUTO 10007KT 10SM OVC013 10/07 A2985 RMK AO2 T00950073 10099 20095
KMGY 
19nm SE 
280553Z AUTO 11008KT 10SM OVC010 09/07 A2984 RMK AO2 SLP105 T00890067 10094 20089 58010
KFFO 
22nm E 
280556Z AUTO 10010G16KT 10SM OVC011 10/06 A2985 RMK AO2 SLP113 T00950057 10095 20092 57012
KVES 
22nm N 
280555Z AUTO 13009KT 10SM OVC009 08/07 A2984 RMK AO2
KI68 
25nm SE 
280555Z AUTO 11008G14KT 10SM OVC010 09/07 A2984 RMK AO1 T00920073 10095 20091
KHAO 
28nm S 
280553Z AUTO 09007KT 10SM OVC014 10/07 A2984 RMK AO2 SLP106 T01000072 10100 20094 58016
TAF
KDAY 
14nm E 
280543Z 2806/2906 11008KT P6SM OVC011 FM281200 11010KT P6SM BKN250 FM282000 12009KT P6SM VCSH BKN060 FM282300 12008KT 6SM -SHRA BR OVC025 FM290100 11008KT 6SM -SHRA BR OVC015 FM290400 12010KT 3SM -SHRA BR OVC007
NOTAMs
Click for the latest NOTAMs
NOTAMs are issued by the DoD/FAA and will open in a separate window not controlled by AirNav.

 

 
 

Would you like to see your business listed on this page?

 If your business provides an interesting product or service to pilots, flight crews, aircraft, or users of the Gilmer Airport, you should consider listing it here.  To start the listing process, click on the button below
 
Add a business
 

Other Pages about Gilmer Airport

Update a link
 
Copyright © AirNav, LLC. All rights reserved. Privacy Policy  Contact